createdAt,value
2023-02-02T00:01:47.010Z,102042.50
2023-02-02T00:04:19.243Z,102015.22
2023-02-02T00:06:48.633Z,102030.09
2023-02-02T00:09:19.180Z,102030.19
2023-02-02T00:11:51.125Z,102030.09
2023-02-02T00:14:19.829Z,102027.31
2023-02-02T00:16:49.167Z,102038.09
2023-02-02T00:19:20.572Z,102033.63
2023-02-02T00:21:49.586Z,102051.31
2023-02-02T00:24:19.508Z,102028.34
2023-02-02T00:26:52.140Z,102023.78
2023-02-02T00:29:23.554Z,101995.28
2023-02-02T00:31:52.784Z,102044.13
2023-02-02T00:34:21.991Z,102051.31
2023-02-02T00:36:51.799Z,102028.16
2023-02-02T00:39:25.451Z,102043.22
2023-02-02T00:41:55.875Z,101937.28
2023-02-02T00:44:41.681Z,102065.25
2023-02-02T00:47:10.051Z,102045.81
2023-02-02T00:49:38.305Z,102058.13
2023-02-02T00:52:06.768Z,102044.88
2023-02-02T00:54:35.085Z,102052.00
2023-02-02T00:57:05.815Z,102062.63
2023-02-02T00:59:34.670Z,102051.22
2023-02-02T01:02:03.137Z,102047.56
2023-02-02T01:04:31.656Z,102047.53
2023-02-02T01:07:00.069Z,102061.81
2023-02-02T01:09:28.588Z,102051.22
2023-02-02T01:11:56.997Z,102047.69
2023-02-02T01:14:28.535Z,102046.22
2023-02-02T01:16:57.456Z,102064.59
2023-02-02T01:19:27.810Z,102059.28
2023-02-02T01:21:56.249Z,102051.47
2023-02-02T01:24:24.560Z,102039.81
2023-02-02T01:26:52.885Z,102039.97
2023-02-02T01:29:21.245Z,102037.16
2023-02-02T01:31:51.109Z,102041.59
2023-02-02T01:34:19.809Z,102031.00
2023-02-02T01:36:48.270Z,102038.84
2023-02-02T01:39:16.710Z,102054.75
2023-02-02T01:41:45.023Z,102051.13
2023-02-02T01:45:11.121Z,102047.63
2023-02-02T01:47:48.614Z,102052.06
2023-02-02T01:50:19.329Z,102044.00
2023-02-02T01:52:50.236Z,102047.53
2023-02-02T01:55:23.621Z,102052.00
2023-02-02T01:57:57.990Z,102052.00
2023-02-02T02:00:27.823Z,102036.97
2023-02-02T02:03:02.436Z,102043.06
2023-02-02T02:05:36.531Z,102046.47
2023-02-02T02:08:13.359Z,102059.66
2023-02-02T02:10:41.831Z,102050.03
2023-02-02T02:13:10.655Z,102052.72
2023-02-02T02:16:05.890Z,102056.19
2023-02-02T02:18:47.085Z,102049.09
2023-02-02T02:22:10.703Z,102050.03
2023-02-02T02:25:37.438Z,102016.25
2023-02-02T02:28:35.821Z,102022.50
2023-02-02T02:31:49.146Z,102014.66
2023-02-02T02:34:28.120Z,102038.47
2023-02-02T02:37:05.361Z,101898.19
2023-02-02T02:39:40.044Z,102026.38
2023-02-02T02:42:16.436Z,102043.19
2023-02-02T02:44:46.315Z,102033.25
2023-02-02T02:47:14.844Z,102047.47
2023-02-02T02:49:46.331Z,102050.19
2023-02-02T02:52:15.900Z,102010.22
2023-02-02T02:54:49.823Z,102074.91
2023-02-02T02:57:39.380Z,102050.09
2023-02-02T03:00:27.233Z,102029.81
2023-02-02T03:03:04.530Z,102036.19
2023-02-02T03:05:44.802Z,102033.41
2023-02-02T03:08:18.903Z,102026.53
2023-02-02T03:10:48.527Z,102034.53
2023-02-02T03:13:17.960Z,102020.28
2023-02-02T03:15:47.871Z,101927.72
2023-02-02T03:18:19.162Z,102029.97
2023-02-02T03:20:48.977Z,102010.34
2023-02-02T03:23:17.665Z,102031.59
2023-02-02T03:25:46.447Z,102042.28
2023-02-02T03:28:15.878Z,102035.88
2023-02-02T03:30:46.282Z,102050.22
2023-02-02T03:33:16.387Z,102020.66
2023-02-02T03:35:44.820Z,102053.63
2023-02-02T03:38:14.542Z,102056.16
2023-02-02T03:40:43.087Z,102047.31
2023-02-02T03:43:11.562Z,102042.13
2023-02-02T03:45:40.820Z,102075.78
2023-02-02T03:48:09.340Z,102058.09
2023-02-02T03:50:38.743Z,102078.44
2023-02-02T03:53:07.243Z,102060.72
2023-02-02T03:55:38.924Z,102074.88
2023-02-02T03:58:07.337Z,102062.38
2023-02-02T04:00:38.813Z,102029.13
2023-02-02T04:03:07.354Z,102075.47
2023-02-02T04:05:35.733Z,102073.03
2023-02-02T04:08:04.117Z,102064.06
2023-02-02T04:10:32.416Z,102074.78
2023-02-02T04:13:05.157Z,102074.84
2023-02-02T04:15:33.533Z,102072.28
2023-02-02T04:18:03.726Z,102077.78
2023-02-02T04:20:32.123Z,102068.78
2023-02-02T04:23:00.729Z,102057.34
2023-02-02T04:25:29.176Z,102075.13
2023-02-02T04:27:57.517Z,102022.50
2023-02-02T04:30:27.239Z,102087.38
2023-02-02T04:32:56.564Z,102054.56
2023-02-02T04:35:25.164Z,102080.31
2023-02-02T04:37:53.687Z,102081.00
2023-02-02T04:40:22.031Z,102099.69
2023-02-02T04:42:53.251Z,102095.31
2023-02-02T04:45:21.875Z,102097.22
2023-02-02T04:47:52.351Z,102034.66
2023-02-02T04:50:20.853Z,102099.59
2023-02-02T04:52:49.159Z,102083.75
2023-02-02T04:55:17.931Z,102055.44
2023-02-02T04:57:46.416Z,102089.56
2023-02-02T05:00:17.004Z,102089.50
2023-02-02T05:02:45.494Z,102100.75
2023-02-02T05:05:16.108Z,102068.94
2023-02-02T05:07:44.473Z,102093.78
2023-02-02T05:10:13.844Z,101721.44
2023-02-02T05:12:44.946Z,102077.13
2023-02-02T05:15:13.479Z,102093.00
2023-02-02T05:17:41.817Z,102073.53
2023-02-02T05:20:12.226Z,102108.69
2023-02-02T05:22:42.120Z,102090.19
2023-02-02T05:25:11.408Z,102088.53
2023-02-02T05:27:39.724Z,102063.38
2023-02-02T05:30:10.656Z,101999.41
2023-02-02T05:32:39.017Z,102074.00
2023-02-02T05:35:09.760Z,102099.72
2023-02-02T05:37:38.306Z,102054.47
2023-02-02T05:40:09.753Z,102089.22
2023-02-02T05:42:38.218Z,102089.03
2023-02-02T05:45:07.732Z,102104.16
2023-02-02T05:47:36.633Z,102100.78
2023-02-02T05:50:05.163Z,102098.94
2023-02-02T05:52:36.607Z,102086.38
2023-02-02T05:55:07.909Z,102102.34
2023-02-02T05:57:36.336Z,102060.50
2023-02-02T06:00:06.718Z,102100.63
2023-02-02T06:02:40.631Z,102073.81
2023-02-02T06:05:10.123Z,102077.41
2023-02-02T06:07:38.509Z,102095.13
2023-02-02T06:10:09.247Z,102114.66
2023-02-02T06:12:37.423Z,102107.53
2023-02-02T06:15:07.293Z,102121.84
2023-02-02T06:17:36.106Z,102082.72
2023-02-02T06:20:05.743Z,102088.06
2023-02-02T06:22:34.447Z,102123.78
2023-02-02T06:25:04.392Z,102121.03
2023-02-02T06:27:34.139Z,102133.28
2023-02-02T06:30:02.665Z,102084.31
2023-02-02T06:32:31.259Z,102133.84
2023-02-02T06:34:59.636Z,102160.53
2023-02-02T06:37:30.584Z,102167.63
2023-02-02T06:39:59.090Z,102167.69
2023-02-02T06:42:29.852Z,102118.59
2023-02-02T06:44:59.726Z,102115.28
2023-02-02T06:47:28.116Z,102156.19
2023-02-02T06:49:56.430Z,102151.78
2023-02-02T06:52:24.962Z,102122.72
2023-02-02T06:54:53.277Z,102152.72
2023-02-02T06:57:21.814Z,102110.00
2023-02-02T06:59:51.224Z,102131.31
2023-02-02T07:02:23.641Z,102138.59
2023-02-02T07:04:52.985Z,102145.59
2023-02-02T07:07:21.447Z,102149.00
2023-02-02T07:09:58.116Z,102161.53
2023-02-02T07:12:28.800Z,102165.19
2023-02-02T07:14:59.411Z,102055.66
2023-02-02T07:17:29.216Z,101790.25
2023-02-02T07:19:57.635Z,102153.41
2023-02-02T07:22:26.155Z,102116.75
2023-02-02T07:24:54.561Z,102175.53
2023-02-02T07:27:22.981Z,102186.19
2023-02-02T07:29:51.528Z,102186.06
2023-02-02T07:32:20.107Z,102108.41
2023-02-02T07:34:49.835Z,102146.78
2023-02-02T07:37:18.422Z,102209.66
2023-02-02T07:39:46.836Z,102205.22
2023-02-02T07:42:15.445Z,102125.22
2023-02-02T07:44:43.960Z,102201.44
2023-02-02T07:47:12.368Z,102223.50
2023-02-02T07:49:40.941Z,102219.13
2023-02-02T07:52:13.095Z,102209.41
2023-02-02T07:54:41.439Z,102220.84
2023-02-02T07:57:13.784Z,102217.19
2023-02-02T07:59:42.317Z,102205.91
2023-02-02T08:02:11.603Z,102222.00
2023-02-02T08:04:40.025Z,102221.72
2023-02-02T08:07:08.393Z,102204.00
2023-02-02T08:09:40.781Z,102177.16
2023-02-02T08:12:09.205Z,102185.22
2023-02-02T08:14:37.797Z,102152.41
2023-02-02T08:17:09.334Z,102222.59
2023-02-02T08:19:37.740Z,102234.16
2023-02-02T08:22:06.145Z,102224.59
2023-02-02T08:24:34.675Z,102225.50
2023-02-02T08:27:06.665Z,102235.94
2023-02-02T08:29:35.385Z,102243.91
2023-02-02T08:32:04.361Z,102243.22
2023-02-02T08:34:34.903Z,102248.63
2023-02-02T08:37:03.515Z,102188.75
2023-02-02T08:39:31.912Z,102246.69
2023-02-02T08:42:00.449Z,102225.31
2023-02-02T08:46:00.114Z,102257.47
2023-02-02T08:47:18.808Z,102257.47
2023-02-02T08:49:47.445Z,102233.72
2023-02-02T08:52:15.885Z,102261.06
2023-02-02T08:54:44.220Z,102266.59
2023-02-02T08:57:12.754Z,102252.53
2023-02-02T08:59:42.474Z,102162.34
2023-02-02T09:02:14.069Z,102245.09
2023-02-02T09:04:45.345Z,102233.34
2023-02-02T09:07:13.810Z,102292.31
2023-02-02T09:09:42.242Z,102285.22
2023-02-02T09:12:10.656Z,102300.44
2023-02-02T09:14:39.063Z,102282.94
2023-02-02T09:17:08.830Z,102296.88
2023-02-02T09:19:37.195Z,102238.06
2023-02-02T09:22:05.596Z,102290.72
2023-02-02T09:24:34.031Z,102294.38
2023-02-02T09:27:02.726Z,102298.41
2023-02-02T09:29:31.365Z,102290.72
2023-02-02T09:31:59.801Z,102250.84
2023-02-02T09:34:29.685Z,102300.16
2023-02-02T09:36:58.488Z,102313.66
2023-02-02T09:39:26.969Z,102302.16
2023-02-02T09:42:33.878Z,102299.63
2023-02-02T09:45:10.089Z,102304.16
2023-02-02T09:47:55.675Z,102286.34
2023-02-02T09:50:41.535Z,102300.69
2023-02-02T09:53:19.623Z,102275.81
2023-02-02T09:55:53.677Z,102282.78
2023-02-02T09:58:27.446Z,102301.34
2023-02-02T10:01:04.824Z,102310.91
2023-02-02T10:03:39.072Z,102291.16
2023-02-02T10:06:23.183Z,102305.47
2023-02-02T10:08:56.351Z,102315.00
2023-02-02T10:11:34.728Z,102324.75
2023-02-02T10:14:07.631Z,102319.19
2023-02-02T10:16:37.717Z,102197.94
2023-02-02T10:19:12.414Z,102306.72
2023-02-02T10:21:49.995Z,102322.59
2023-02-02T10:24:21.578Z,102304.13
2023-02-02T10:26:52.968Z,102316.78
2023-02-02T10:29:48.220Z,102315.84
2023-02-02T10:32:25.100Z,102307.28
2023-02-02T10:35:17.301Z,102338.91
2023-02-02T10:37:56.514Z,102013.91
2023-02-02T10:40:42.091Z,102339.22
2023-02-02T10:43:54.566Z,102346.34
2023-02-02T10:46:29.020Z,102345.66
2023-02-02T10:49:14.798Z,102351.03
2023-02-02T10:51:47.299Z,102326.25
2023-02-02T10:54:56.472Z,102345.28
2023-02-02T10:57:48.169Z,102323.72
2023-02-02T11:00:24.186Z,102352.44
2023-02-02T11:02:53.945Z,102336.59
2023-02-02T11:05:43.428Z,102342.47
2023-02-02T11:08:16.658Z,102355.09
2023-02-02T11:10:49.017Z,102361.31
2023-02-02T11:13:28.204Z,102229.56
2023-02-02T11:16:21.995Z,102339.25
2023-02-02T11:18:51.199Z,102351.44
2023-02-02T11:21:27.541Z,102343.44
2023-02-02T11:24:01.152Z,102191.72
2023-02-02T11:26:44.946Z,102351.16
2023-02-02T11:29:17.496Z,102337.69
2023-02-02T11:31:46.910Z,102331.50
2023-02-02T11:34:22.055Z,102327.84
2023-02-02T11:37:14.759Z,102327.72
2023-02-02T11:39:44.723Z,102345.28
2023-02-02T11:42:19.192Z,102355.81
2023-02-02T11:44:51.489Z,102334.41
2023-02-02T11:47:27.923Z,102340.75
2023-02-02T11:49:59.672Z,102330.03
2023-02-02T11:52:32.726Z,102343.34
2023-02-02T11:55:04.036Z,102327.25
2023-02-02T11:57:33.861Z,102248.91
2023-02-02T12:00:19.873Z,102136.75
2023-02-02T12:02:49.488Z,102078.00
2023-02-02T12:05:37.463Z,102335.53
2023-02-02T12:08:06.945Z,102304.44
2023-02-02T12:10:43.541Z,102354.91
2023-02-02T12:13:32.624Z,102326.59
2023-02-02T12:16:20.744Z,102318.59
2023-02-02T12:19:06.669Z,102323.09
2023-02-02T12:21:44.332Z,102339.88
2023-02-02T12:24:31.366Z,102326.31
2023-02-02T12:27:19.372Z,102335.06
2023-02-02T12:30:24.589Z,102334.03
2023-02-02T12:33:08.708Z,102319.94
2023-02-02T12:35:59.141Z,102309.06
2023-02-02T12:39:01.727Z,102332.06
2023-02-02T12:41:50.726Z,102334.72
2023-02-02T12:44:29.829Z,102343.44
2023-02-02T12:47:14.662Z,102335.38
2023-02-02T12:50:04.242Z,102301.28
2023-02-02T12:52:53.840Z,102334.53
2023-02-02T12:55:31.137Z,102316.94
2023-02-02T12:58:10.342Z,102330.16
2023-02-02T13:01:22.816Z,102291.13
2023-02-02T13:04:12.471Z,102301.59
2023-02-02T13:07:22.328Z,102303.31
2023-02-02T13:10:02.551Z,102319.22
2023-02-02T13:12:35.547Z,102315.34
2023-02-02T13:15:09.022Z,102314.56
2023-02-02T13:17:43.125Z,102304.88
2023-02-02T13:20:25.543Z,102307.59
2023-02-02T13:23:00.035Z,102310.88
2023-02-02T13:25:32.979Z,102310.13
2023-02-02T13:28:02.032Z,102314.72
2023-02-02T13:30:37.937Z,102318.28
2023-02-02T13:33:16.412Z,102320.00
2023-02-02T13:35:53.626Z,102317.19
2023-02-02T13:38:26.080Z,102311.91
2023-02-02T13:40:58.304Z,102292.34
2023-02-02T13:43:38.601Z,102320.66
2023-02-02T13:46:22.893Z,102326.91
2023-02-02T13:49:06.664Z,102297.53
2023-02-02T13:51:54.767Z,102312.84
2023-02-02T13:55:22.234Z,102297.88
2023-02-02T13:58:33.892Z,102323.34
2023-02-02T14:01:07.427Z,102311.22
2023-02-02T14:03:39.993Z,102316.44
2023-02-02T14:06:13.946Z,102324.50
2023-02-02T14:08:52.215Z,102339.91
2023-02-02T14:11:27.027Z,102312.94
2023-02-02T14:14:18.130Z,102339.13
2023-02-02T14:16:52.765Z,102310.56
2023-02-02T14:19:51.260Z,102202.13
2023-02-02T14:22:42.977Z,102327.22
2023-02-02T14:25:55.329Z,102335.03
2023-02-02T14:28:46.595Z,102338.69
2023-02-02T14:31:45.755Z,102318.81
2023-02-02T14:34:35.807Z,102341.19
2023-02-02T14:37:32.242Z,102345.66
2023-02-02T14:40:20.000Z,102348.44
2023-02-02T14:43:23.162Z,102356.34
2023-02-02T14:46:24.446Z,102350.28
2023-02-02T14:49:14.423Z,102352.19
2023-02-02T14:51:59.923Z,102359.28
2023-02-02T14:54:34.279Z,102370.19
2023-02-02T14:57:06.154Z,102355.28
2023-02-02T14:59:38.642Z,102355.41
2023-02-02T15:02:18.905Z,102351.97
2023-02-02T15:04:48.302Z,102338.66
2023-02-02T15:07:54.900Z,102349.41
2023-02-02T15:11:25.426Z,102352.94
2023-02-02T15:14:07.111Z,102322.84
2023-02-02T15:16:39.765Z,102348.78
2023-02-02T15:19:32.436Z,102347.97
2023-02-02T15:22:24.486Z,102337.25
2023-02-02T15:24:54.354Z,102312.16
2023-02-02T15:27:25.204Z,102358.56
2023-02-02T15:29:58.283Z,102316.91
2023-02-02T15:32:28.808Z,102356.06
2023-02-02T15:35:02.337Z,102359.63
2023-02-02T15:37:40.201Z,102356.00
2023-02-02T15:40:15.592Z,102355.06
2023-02-02T15:42:55.805Z,102347.03
2023-02-02T15:45:48.162Z,102352.44
2023-02-02T15:48:27.302Z,102363.88
2023-02-02T15:50:56.386Z,102358.34
2023-02-02T15:53:28.295Z,102353.88
2023-02-02T15:55:58.135Z,102366.47
2023-02-02T15:58:35.861Z,102376.16
2023-02-02T16:01:07.191Z,102378.00
2023-02-02T16:03:52.652Z,102377.13
2023-02-02T16:06:22.324Z,102370.09
2023-02-02T16:08:51.309Z,102313.97
2023-02-02T16:11:23.285Z,102342.44
2023-02-02T16:14:02.590Z,102387.88
2023-02-02T16:16:33.654Z,102396.56
2023-02-02T16:19:16.301Z,102388.69
2023-02-02T16:21:52.572Z,102388.63
2023-02-02T16:24:25.752Z,102372.56
2023-02-02T16:26:55.889Z,102366.34
2023-02-02T16:29:24.642Z,102389.50
2023-02-02T16:31:53.354Z,102389.31
2023-02-02T16:34:47.443Z,102378.59
2023-02-02T16:37:18.862Z,102392.06
2023-02-02T16:39:47.330Z,102393.03
2023-02-02T16:42:27.017Z,102342.22
2023-02-02T16:44:59.357Z,102395.00
2023-02-02T16:47:39.904Z,102400.41
2023-02-02T16:50:30.817Z,102397.00
2023-02-02T16:53:03.510Z,102406.56
2023-02-02T16:55:49.413Z,102412.63
2023-02-02T16:58:23.072Z,102378.84
2023-02-02T17:01:13.939Z,102403.00
2023-02-02T17:03:51.450Z,102042.06
2023-02-02T17:06:38.285Z,102397.56
2023-02-02T17:09:34.140Z,102404.72
2023-02-02T17:12:14.194Z,102371.69
2023-02-02T17:14:54.490Z,102401.16
2023-02-02T17:17:23.197Z,102413.59
2023-02-02T17:19:52.358Z,102393.03
2023-02-02T17:22:25.499Z,102411.00
2023-02-02T17:24:54.599Z,102409.22
2023-02-02T17:27:29.213Z,102418.94
2023-02-02T17:29:58.462Z,102421.66
2023-02-02T17:32:28.147Z,102419.84
2023-02-02T17:34:57.228Z,102421.66
2023-02-02T17:37:29.586Z,102411.88
2023-02-02T17:39:57.925Z,102420.84
2023-02-02T17:42:30.576Z,102415.47
2023-02-02T17:44:59.078Z,102422.53
2023-02-02T17:47:27.583Z,102428.69
2023-02-02T17:49:55.971Z,102418.78
2023-02-02T17:52:24.635Z,102420.78
2023-02-02T17:54:54.530Z,102426.16
2023-02-02T17:57:22.878Z,102426.09
2023-02-02T17:59:51.545Z,102387.69
2023-02-02T18:02:20.169Z,102423.50
2023-02-02T18:04:48.573Z,102416.28
2023-02-02T18:07:17.039Z,102401.97
2023-02-02T18:09:45.436Z,102419.88
2023-02-02T18:12:15.389Z,102422.50
2023-02-02T18:14:43.999Z,102431.31
2023-02-02T18:17:12.428Z,102422.41
2023-02-02T18:19:44.996Z,102403.78
2023-02-02T18:22:16.387Z,102414.53
2023-02-02T18:24:44.994Z,102386.91
2023-02-02T18:27:15.836Z,102415.44
2023-02-02T18:29:44.704Z,102405.56
2023-02-02T18:32:13.133Z,102425.03
2023-02-02T18:34:42.219Z,102400.28
2023-02-02T18:37:11.117Z,102410.88
2023-02-02T18:39:39.529Z,102383.22
2023-02-02T18:42:07.945Z,102403.00
2023-02-02T18:44:38.642Z,102414.53
2023-02-02T18:47:07.332Z,102393.44
2023-02-02T18:49:35.628Z,102389.66
2023-02-02T18:52:04.038Z,102399.44
2023-02-02T18:54:35.554Z,102372.69
2023-02-02T18:57:04.318Z,102369.13
2023-02-02T18:59:32.638Z,102396.81
2023-02-02T19:02:02.512Z,102402.22
2023-02-02T19:04:31.389Z,102409.25
2023-02-02T19:07:17.228Z,102391.50
2023-02-02T19:09:45.765Z,102363.97
2023-02-02T19:12:15.671Z,102387.88
2023-02-02T19:14:44.089Z,102400.25
2023-02-02T19:17:24.661Z,102407.47
2023-02-02T19:19:53.169Z,102263.91
2023-02-02T19:22:24.876Z,102405.66
2023-02-02T19:24:53.264Z,102380.59
2023-02-02T19:27:24.056Z,102368.91
2023-02-02T19:29:56.152Z,102392.09
2023-02-02T19:32:28.040Z,102396.47
2023-02-02T19:35:01.252Z,102368.75
2023-02-02T19:37:31.614Z,102399.91
2023-02-02T19:40:19.788Z,102420.38
2023-02-02T19:42:52.733Z,102415.00
2023-02-02T19:45:29.383Z,102407.88
2023-02-02T19:48:02.395Z,102413.25
2023-02-02T19:50:38.994Z,102413.28
2023-02-02T19:53:15.728Z,102415.09
2023-02-02T19:55:44.631Z,102428.31
2023-02-02T19:58:19.654Z,102416.06
2023-02-02T20:00:49.371Z,102419.72
2023-02-02T20:03:21.356Z,102422.38
2023-02-02T20:05:52.231Z,102425.94
2023-02-02T20:08:26.995Z,102430.44
2023-02-02T20:10:58.986Z,102416.16
2023-02-02T20:13:38.720Z,102317.97
2023-02-02T20:16:13.723Z,102382.97
2023-02-02T20:18:46.193Z,102443.44
2023-02-02T20:21:25.130Z,102448.19
2023-02-02T20:23:53.886Z,102434.84
2023-02-02T20:26:27.145Z,102453.50
2023-02-02T20:28:57.094Z,102424.09
2023-02-02T20:31:38.024Z,102142.25
2023-02-02T20:34:19.218Z,102419.81
2023-02-02T20:36:48.821Z,102460.50
2023-02-02T20:39:42.775Z,102455.16
2023-02-02T20:42:11.444Z,102453.59
2023-02-02T20:44:39.819Z,102454.41
2023-02-02T20:47:08.856Z,102456.97
2023-02-02T20:49:39.901Z,102439.19
2023-02-02T20:52:13.000Z,102461.34
2023-02-02T20:54:41.415Z,102454.25
2023-02-02T20:57:09.823Z,102422.25
2023-02-02T20:59:38.335Z,102417.75
2023-02-02T21:02:06.929Z,102453.38
2023-02-02T21:04:35.630Z,102456.03
2023-02-02T21:07:05.483Z,102457.81
2023-02-02T21:09:34.315Z,102437.13
2023-02-02T21:12:03.034Z,102461.22
2023-02-02T21:14:31.419Z,102453.25
2023-02-02T21:17:13.983Z,102456.81
2023-02-02T21:19:43.093Z,102407.75
2023-02-02T21:22:13.649Z,102444.28
2023-02-02T21:24:42.648Z,102439.78
2023-02-02T21:27:11.346Z,102433.63
2023-02-02T21:29:39.788Z,102451.22
2023-02-02T21:32:08.335Z,102453.88
2023-02-02T21:34:39.398Z,102456.50
2023-02-02T21:37:16.790Z,102448.63
2023-02-02T21:39:51.185Z,102455.53
2023-02-02T21:42:21.918Z,102474.06
2023-02-02T21:44:54.182Z,102464.13
2023-02-02T21:47:31.126Z,102473.47
2023-02-02T21:50:11.284Z,102465.31
2023-02-02T21:52:41.154Z,102412.75
2023-02-02T21:55:34.302Z,102460.94
2023-02-02T21:58:14.580Z,102455.00
2023-02-02T22:00:42.926Z,102440.63
2023-02-02T22:03:28.836Z,102440.81
2023-02-02T22:06:26.900Z,102433.66
2023-02-02T22:09:04.145Z,102435.41
2023-02-02T22:11:45.563Z,102424.88
2023-02-02T22:14:20.470Z,102397.28
2023-02-02T22:16:52.352Z,102411.66
2023-02-02T22:19:29.698Z,102410.75
2023-02-02T22:22:15.579Z,102372.34
2023-02-02T22:24:47.053Z,102285.97
2023-02-02T22:27:22.569Z,102405.31
2023-02-02T22:29:55.505Z,102375.94
2023-02-02T22:32:23.876Z,102362.72
2023-02-02T22:34:52.176Z,102400.91
2023-02-02T22:37:20.540Z,102412.47
2023-02-02T22:39:50.255Z,102386.66
2023-02-02T22:42:18.878Z,102392.84
2023-02-02T22:44:48.277Z,102408.09
2023-02-02T22:47:16.618Z,102389.50
2023-02-02T22:49:44.942Z,102395.66
2023-02-02T22:52:13.314Z,102380.44
2023-02-02T22:54:41.614Z,102385.94
2023-02-02T22:57:11.403Z,102379.59
2023-02-02T22:59:39.781Z,102344.19
2023-02-02T23:02:08.138Z,102335.38
2023-02-02T23:04:36.458Z,102289.03
2023-02-02T23:07:04.857Z,102339.69
2023-02-02T23:09:33.241Z,102340.69
2023-02-02T23:12:01.882Z,102339.81
2023-02-02T23:14:31.558Z,102341.53
2023-02-02T23:17:00.267Z,102339.69
2023-02-02T23:19:31.249Z,102352.19
2023-02-02T23:21:59.761Z,102346.78
2023-02-02T23:24:28.173Z,102359.09
2023-02-02T23:26:56.692Z,102348.56
2023-02-02T23:29:25.077Z,102352.97
2023-02-02T23:31:54.945Z,102356.44
2023-02-02T23:34:23.318Z,102349.50
2023-02-02T23:36:53.560Z,102352.78
2023-02-02T23:39:21.962Z,102360.03
2023-02-02T23:41:50.277Z,102352.75
2023-02-02T23:44:18.876Z,102358.16
2023-02-02T23:46:47.481Z,102373.16
2023-02-02T23:49:17.539Z,102374.63
2023-02-02T23:51:46.221Z,102242.78
2023-02-02T23:54:16.346Z,102381.13
2023-02-02T23:56:44.813Z,102371.34
2023-02-02T23:59:13.198Z,102382.81
